createdAt,value
2022-10-31T00:01:39.030Z,11.30
2022-10-31T00:04:07.439Z,11.35
2022-10-31T00:06:34.778Z,11.30
2022-10-31T00:09:05.321Z,11.30
2022-10-31T00:11:32.652Z,11.20
2022-10-31T00:14:00.479Z,11.19
2022-10-31T00:16:29.715Z,11.19
2022-10-31T00:19:03.386Z,11.28
2022-10-31T00:21:32.326Z,11.31
2022-10-31T00:24:00.888Z,11.33
2022-10-31T00:26:30.511Z,11.29
2022-10-31T00:29:00.906Z,11.22
2022-10-31T00:31:28.662Z,11.14
2022-10-31T00:33:56.433Z,11.06
2022-10-31T00:36:23.603Z,11.13
2022-10-31T00:38:50.801Z,11.02
2022-10-31T00:41:19.034Z,10.96
2022-10-31T00:43:46.393Z,10.96
2022-10-31T00:46:14.602Z,10.92
2022-10-31T00:48:43.027Z,10.86
2022-10-31T00:51:10.617Z,10.81
2022-10-31T00:53:37.884Z,10.82
2022-10-31T00:56:06.292Z,10.92
2022-10-31T00:58:33.454Z,10.92
2022-10-31T01:01:00.714Z,10.97
2022-10-31T01:03:32.688Z,10.93
2022-10-31T01:06:05.719Z,10.84
2022-10-31T01:08:35.570Z,10.76
2022-10-31T01:11:12.233Z,10.73
2022-10-31T01:13:42.396Z,10.71
2022-10-31T01:16:17.764Z,10.67
2022-10-31T01:18:45.353Z,10.67
2022-10-31T01:21:18.297Z,10.61
2022-10-31T01:23:46.631Z,10.59
2022-10-31T01:26:25.921Z,10.61
2022-10-31T01:29:02.317Z,10.60
2022-10-31T01:31:37.777Z,10.56
2022-10-31T01:34:07.524Z,10.57
2022-10-31T01:36:38.972Z,10.54
2022-10-31T01:39:14.772Z,10.46
2022-10-31T01:41:52.863Z,10.50
2022-10-31T01:44:19.950Z,10.58
2022-10-31T01:47:15.321Z,10.52
2022-10-31T01:49:59.102Z,10.50
2022-10-31T01:52:50.654Z,10.48
2022-10-31T01:55:36.118Z,10.59
2022-10-31T01:58:14.294Z,10.53
2022-10-31T02:00:47.806Z,10.43
2022-10-31T02:03:15.323Z,10.35
2022-10-31T02:05:44.657Z,10.31
2022-10-31T02:08:41.569Z,10.32
2022-10-31T02:11:09.287Z,10.33
2022-10-31T02:13:38.031Z,10.42
2022-10-31T02:16:10.372Z,10.43
2022-10-31T02:18:37.640Z,10.39
2022-10-31T02:21:28.021Z,10.55
2022-10-31T02:24:21.653Z,10.55
2022-10-31T02:27:31.369Z,10.47
2022-10-31T02:30:46.444Z,10.35
2022-10-31T02:33:43.714Z,10.38
2022-10-31T02:36:12.380Z,10.36
2022-10-31T02:39:24.802Z,10.40
2022-10-31T02:42:20.966Z,10.36
2022-10-31T02:45:11.348Z,10.29
2022-10-31T02:47:39.888Z,10.18
2022-10-31T02:50:25.100Z,10.08
2022-10-31T02:52:53.532Z,10.16
2022-10-31T02:55:26.742Z,10.26
2022-10-31T02:58:11.192Z,10.31
2022-10-31T03:01:29.380Z,10.26
2022-10-31T03:04:23.087Z,10.23
2022-10-31T03:07:40.141Z,10.28
2022-10-31T03:10:47.738Z,10.21
2022-10-31T03:13:44.616Z,10.24
2022-10-31T03:16:51.108Z,10.27
2022-10-31T03:19:34.178Z,10.28
2022-10-31T03:22:25.298Z,10.30
2022-10-31T03:24:55.560Z,10.36
2022-10-31T03:27:28.960Z,10.34
2022-10-31T03:30:02.373Z,10.23
2022-10-31T03:33:00.147Z,10.16
2022-10-31T03:35:31.668Z,10.15
2022-10-31T03:38:06.768Z,10.15
2022-10-31T03:40:38.638Z,10.16
2022-10-31T03:43:15.178Z,10.20
2022-10-31T03:45:47.806Z,10.19
2022-10-31T03:48:18.944Z,10.21
2022-10-31T03:51:12.735Z,10.27
2022-10-31T03:54:30.719Z,10.27
2022-10-31T03:57:27.563Z,10.29
2022-10-31T04:00:16.077Z,10.30
2022-10-31T04:03:32.180Z,10.33
2022-10-31T04:06:07.960Z,10.29
2022-10-31T04:08:52.559Z,10.26
2022-10-31T04:11:26.758Z,10.17
2022-10-31T04:14:13.869Z,10.13
2022-10-31T04:16:44.964Z,10.17
2022-10-31T04:19:14.035Z,10.12
2022-10-31T04:21:44.251Z,10.11
2022-10-31T04:24:12.395Z,10.12
2022-10-31T04:26:40.405Z,10.14
2022-10-31T04:29:08.049Z,10.18
2022-10-31T04:31:35.289Z,10.10
2022-10-31T04:34:03.074Z,10.07
2022-10-31T04:36:30.298Z,10.10
2022-10-31T04:38:58.868Z,10.12
2022-10-31T04:41:40.899Z,10.10
2022-10-31T04:44:17.358Z,9.98
2022-10-31T04:46:48.531Z,9.92
2022-10-31T04:49:15.787Z,9.92
2022-10-31T04:51:43.094Z,9.97
2022-10-31T04:54:10.601Z,10.01
2022-10-31T04:57:09.976Z,10.04
2022-10-31T04:59:38.179Z,10.10
2022-10-31T05:02:05.465Z,10.10
2022-10-31T05:04:43.539Z,10.06
2022-10-31T05:07:10.822Z,10.02
2022-10-31T05:09:38.043Z,9.98
2022-10-31T05:12:05.722Z,9.93
2022-10-31T05:14:51.367Z,9.86
2022-10-31T05:17:38.446Z,9.83
2022-10-31T05:20:29.410Z,9.87
2022-10-31T05:23:15.535Z,9.84
2022-10-31T05:25:43.304Z,9.83
2022-10-31T05:28:10.613Z,9.74
2022-10-31T05:30:38.416Z,9.74
2022-10-31T05:33:09.510Z,9.77
2022-10-31T05:35:55.285Z,9.70
2022-10-31T05:38:25.305Z,9.77
2022-10-31T05:41:01.911Z,9.93
2022-10-31T05:43:31.506Z,10.02
2022-10-31T05:45:58.987Z,9.98
2022-10-31T05:48:44.652Z,9.86
2022-10-31T05:51:38.135Z,9.78
2022-10-31T05:54:05.937Z,9.77
2022-10-31T05:56:33.179Z,9.73
2022-10-31T05:59:01.197Z,9.74
2022-10-31T06:01:28.540Z,9.68
2022-10-31T06:03:57.713Z,9.63
2022-10-31T06:06:25.002Z,9.59
2022-10-31T06:08:53.137Z,9.64
2022-10-31T06:11:23.344Z,9.73
2022-10-31T06:14:03.001Z,9.80
2022-10-31T06:16:44.573Z,9.72
2022-10-31T06:19:31.713Z,9.80
2022-10-31T06:21:59.707Z,9.80
2022-10-31T06:24:26.963Z,9.82
2022-10-31T06:26:54.184Z,9.83
2022-10-31T06:29:22.205Z,9.89
2022-10-31T06:32:02.367Z,9.94
2022-10-31T06:34:31.063Z,10.04
2022-10-31T06:37:00.023Z,10.05
2022-10-31T06:39:28.668Z,10.11
2022-10-31T06:41:55.964Z,10.21
2022-10-31T06:44:24.350Z,10.28
2022-10-31T06:47:14.379Z,10.32
2022-10-31T06:50:06.163Z,10.38
2022-10-31T06:52:33.372Z,10.43
2022-10-31T06:55:00.502Z,10.53
2022-10-31T06:57:28.870Z,10.64
2022-10-31T06:59:56.750Z,10.69
2022-10-31T07:02:42.262Z,10.82
2022-10-31T07:05:09.541Z,10.90
2022-10-31T07:07:37.313Z,10.96
2022-10-31T07:10:05.208Z,11.03
2022-10-31T07:13:07.410Z,11.20
2022-10-31T07:15:40.218Z,11.38
2022-10-31T07:18:11.236Z,11.52
2022-10-31T07:20:38.908Z,11.69
2022-10-31T07:23:06.525Z,11.84
2022-10-31T07:25:34.156Z,12.01
2022-10-31T07:28:01.888Z,12.21
2022-10-31T07:30:29.504Z,12.44
2022-10-31T07:32:57.837Z,12.62
2022-10-31T07:35:36.206Z,12.72
2022-10-31T07:38:15.220Z,12.88
2022-10-31T07:40:43.853Z,13.07
2022-10-31T07:43:14.811Z,13.24
2022-10-31T07:46:02.538Z,13.39
2022-10-31T07:48:48.097Z,13.50
2022-10-31T07:51:34.048Z,13.51
2022-10-31T07:54:16.183Z,13.60
2022-10-31T07:56:43.371Z,13.73
2022-10-31T07:59:10.675Z,13.81
2022-10-31T08:01:37.883Z,13.95
2022-10-31T08:04:40.314Z,14.14
2022-10-31T08:07:39.633Z,14.36
2022-10-31T08:10:13.975Z,14.41
2022-10-31T08:12:41.508Z,14.48
2022-10-31T08:15:10.180Z,14.58
2022-10-31T08:17:38.961Z,14.67
2022-10-31T08:20:07.351Z,14.77
2022-10-31T08:22:43.823Z,14.88
2022-10-31T08:25:11.723Z,14.91
2022-10-31T08:27:39.824Z,15.00
2022-10-31T08:30:09.883Z,15.12
2022-10-31T08:32:39.798Z,15.20
2022-10-31T08:35:39.502Z,15.29
2022-10-31T08:38:38.823Z,15.36
2022-10-31T08:41:09.576Z,15.47
2022-10-31T08:43:37.707Z,15.54
2022-10-31T08:46:05.269Z,15.66
2022-10-31T08:48:33.278Z,15.75
2022-10-31T08:51:02.013Z,15.77
2022-10-31T08:53:30.414Z,15.79
2022-10-31T08:56:15.792Z,15.87
2022-10-31T08:58:42.976Z,15.93
2022-10-31T09:01:11.316Z,15.97
2022-10-31T09:03:38.611Z,16.02
2022-10-31T09:06:09.697Z,16.13
2022-10-31T09:08:38.192Z,16.22
2022-10-31T09:11:07.455Z,16.29
2022-10-31T09:14:10.209Z,16.39
2022-10-31T09:16:40.280Z,16.37
2022-10-31T09:19:13.696Z,16.38
2022-10-31T09:21:45.615Z,16.42
2022-10-31T09:24:12.933Z,16.49
2022-10-31T09:26:42.487Z,16.53
2022-10-31T09:29:24.555Z,16.63
2022-10-31T09:31:57.744Z,16.80
2022-10-31T09:34:33.878Z,16.94
2022-10-31T09:37:06.116Z,17.01
2022-10-31T09:39:35.784Z,17.14
2022-10-31T09:42:51.088Z,17.37
2022-10-31T09:45:45.248Z,17.46
2022-10-31T09:49:14.111Z,17.42
2022-10-31T09:52:25.138Z,17.51
2022-10-31T09:55:06.030Z,17.68
2022-10-31T09:57:38.086Z,17.86
2022-10-31T10:00:11.145Z,17.92
2022-10-31T10:03:00.068Z,17.94
2022-10-31T10:05:45.040Z,18.01
2022-10-31T10:08:26.659Z,18.23
2022-10-31T10:11:56.179Z,18.53
2022-10-31T10:14:58.078Z,18.59
2022-10-31T10:17:52.755Z,18.56
2022-10-31T10:20:35.787Z,18.81
2022-10-31T10:23:37.703Z,19.39
2022-10-31T10:27:00.663Z,19.70
2022-10-31T10:29:59.325Z,19.85
2022-10-31T10:32:32.581Z,20.15
2022-10-31T10:35:36.270Z,20.40
2022-10-31T10:38:36.703Z,20.75
2022-10-31T10:41:12.997Z,20.70
2022-10-31T10:43:40.656Z,20.66
2022-10-31T10:47:08.916Z,20.48
2022-10-31T10:49:54.300Z,20.98
2022-10-31T10:52:53.837Z,21.17
2022-10-31T10:55:56.416Z,21.42
2022-10-31T10:58:23.927Z,21.17
2022-10-31T11:00:54.423Z,21.06
2022-10-31T11:03:21.859Z,20.62
2022-10-31T11:06:02.089Z,20.56
2022-10-31T11:08:32.508Z,20.70
2022-10-31T11:11:17.818Z,20.78
2022-10-31T11:13:51.370Z,21.19
2022-10-31T11:16:35.532Z,21.39
2022-10-31T11:19:13.074Z,21.40
2022-10-31T11:21:40.295Z,21.55
2022-10-31T11:24:10.375Z,21.74
2022-10-31T11:26:40.486Z,21.51
2022-10-31T11:29:26.806Z,21.24
2022-10-31T11:32:00.955Z,20.98
2022-10-31T11:34:35.895Z,21.20
2022-10-31T11:37:28.162Z,21.27
2022-10-31T11:40:00.247Z,21.44
2022-10-31T11:42:37.098Z,21.70
2022-10-31T11:45:23.843Z,21.01
2022-10-31T11:47:59.192Z,21.23
2022-10-31T11:50:43.424Z,21.25
2022-10-31T11:53:56.725Z,21.19
2022-10-31T11:56:27.813Z,21.57
2022-10-31T11:59:06.822Z,21.65
2022-10-31T12:01:34.541Z,21.53
2022-10-31T12:04:10.934Z,21.51
2022-10-31T12:06:43.036Z,21.45
2022-10-31T12:09:34.648Z,21.40
2022-10-31T12:12:30.962Z,21.47
2022-10-31T12:15:34.338Z,21.28
2022-10-31T12:18:33.799Z,21.28
2022-10-31T12:22:14.324Z,21.56
2022-10-31T12:25:52.257Z,21.31
2022-10-31T12:28:45.415Z,20.98
2022-10-31T12:31:55.115Z,20.69
2022-10-31T12:34:49.965Z,20.74
2022-10-31T12:38:04.343Z,20.95
2022-10-31T12:41:08.947Z,20.99
2022-10-31T12:43:58.507Z,21.18
2022-10-31T12:46:37.561Z,21.33
2022-10-31T12:49:40.032Z,21.38
2022-10-31T12:52:54.380Z,21.49
2022-10-31T12:56:02.055Z,21.60
2022-10-31T12:58:46.725Z,21.58
2022-10-31T13:01:27.578Z,21.60
2022-10-31T13:04:17.988Z,21.74
2022-10-31T13:07:11.293Z,21.99
2022-10-31T13:10:03.763Z,22.03
2022-10-31T13:12:37.374Z,22.20
2022-10-31T13:15:28.978Z,21.85
2022-10-31T13:18:03.079Z,21.41
2022-10-31T13:20:41.395Z,21.10
2022-10-31T13:23:50.383Z,20.97
2022-10-31T13:26:46.374Z,21.30
2022-10-31T13:29:56.868Z,21.29
2022-10-31T13:32:25.670Z,21.31
2022-10-31T13:34:59.180Z,21.48
2022-10-31T13:37:42.690Z,21.50
2022-10-31T13:40:43.722Z,21.57
2022-10-31T13:43:34.332Z,21.68
2022-10-31T13:46:01.643Z,21.92
2022-10-31T13:48:28.771Z,22.15
2022-10-31T13:51:05.393Z,22.22
2022-10-31T13:53:43.047Z,22.20
2022-10-31T13:56:25.490Z,22.17
2022-10-31T13:59:10.737Z,22.07
2022-10-31T14:01:47.459Z,22.00
2022-10-31T14:04:25.857Z,21.82
2022-10-31T14:07:17.298Z,21.77
2022-10-31T14:10:06.276Z,21.72
2022-10-31T14:12:42.207Z,21.72
2022-10-31T14:15:24.794Z,21.76
2022-10-31T14:18:01.864Z,22.05
2022-10-31T14:20:45.025Z,22.62
2022-10-31T14:23:38.547Z,22.36
2022-10-31T14:26:26.639Z,22.25
2022-10-31T14:29:20.821Z,22.35
2022-10-31T14:32:27.611Z,23.24
2022-10-31T14:34:58.827Z,25.01
2022-10-31T14:38:11.944Z,26.37
2022-10-31T14:40:58.703Z,26.88
2022-10-31T14:44:15.248Z,26.84
2022-10-31T14:46:57.044Z,25.36
2022-10-31T14:49:35.155Z,24.92
2022-10-31T14:52:06.943Z,23.91
2022-10-31T14:54:42.150Z,23.06
2022-10-31T14:57:20.407Z,22.57
2022-10-31T15:00:00.787Z,22.43
2022-10-31T15:02:57.108Z,24.24
2022-10-31T15:05:27.133Z,26.48
2022-10-31T15:07:58.625Z,27.98
2022-10-31T15:10:33.133Z,28.82
2022-10-31T15:13:24.865Z,29.06
2022-10-31T15:15:56.444Z,29.07
2022-10-31T15:18:28.609Z,28.68
2022-10-31T15:20:57.778Z,28.43
2022-10-31T15:23:30.034Z,27.86
2022-10-31T15:26:06.532Z,27.40
2022-10-31T15:28:33.794Z,25.94
2022-10-31T15:31:03.963Z,25.16
2022-10-31T15:33:47.886Z,24.25
2022-10-31T15:36:27.152Z,24.08
2022-10-31T15:38:59.803Z,23.72
2022-10-31T15:41:54.831Z,22.72
2022-10-31T15:44:43.272Z,21.70
2022-10-31T15:47:27.176Z,21.14
2022-10-31T15:50:00.081Z,20.66
2022-10-31T15:52:34.195Z,20.29
2022-10-31T15:55:11.706Z,20.04
2022-10-31T15:57:54.053Z,19.79
2022-10-31T16:00:38.363Z,19.49
2022-10-31T16:03:31.655Z,19.23
2022-10-31T16:06:06.641Z,19.01
2022-10-31T16:08:37.042Z,18.83
2022-10-31T16:11:13.607Z,18.70
2022-10-31T16:14:29.019Z,18.45
2022-10-31T16:16:59.538Z,18.26
2022-10-31T16:19:48.493Z,18.05
2022-10-31T16:22:28.475Z,17.91
2022-10-31T16:25:30.370Z,17.81
2022-10-31T16:28:16.151Z,17.65
2022-10-31T16:30:50.168Z,17.52
2022-10-31T16:33:37.125Z,17.43
2022-10-31T16:36:35.246Z,17.31
2022-10-31T16:39:04.094Z,17.28
2022-10-31T16:41:32.972Z,17.12
2022-10-31T16:44:03.374Z,16.97
2022-10-31T16:46:30.541Z,16.85
2022-10-31T16:48:58.660Z,16.74
2022-10-31T16:51:25.906Z,16.66
2022-10-31T16:53:54.299Z,16.62
2022-10-31T16:56:34.018Z,16.51
2022-10-31T16:59:05.449Z,16.40
2022-10-31T17:01:33.748Z,16.33
2022-10-31T17:04:00.981Z,16.21
2022-10-31T17:06:28.518Z,16.16
2022-10-31T17:08:55.782Z,16.06
2022-10-31T17:11:26.124Z,16.02
2022-10-31T17:13:54.923Z,15.93
2022-10-31T17:16:22.173Z,15.88
2022-10-31T17:18:49.443Z,15.83
2022-10-31T17:21:26.275Z,15.75
2022-10-31T17:23:53.818Z,15.68
2022-10-31T17:26:21.437Z,15.64
2022-10-31T17:28:49.231Z,15.55
2022-10-31T17:31:31.439Z,15.47
2022-10-31T17:34:02.725Z,15.44
2022-10-31T17:36:33.528Z,15.39
2022-10-31T17:39:00.959Z,15.37
2022-10-31T17:41:28.123Z,15.31
2022-10-31T17:43:59.581Z,15.22
2022-10-31T17:46:28.285Z,15.17
2022-10-31T17:48:55.634Z,15.13
2022-10-31T17:51:23.019Z,15.04
2022-10-31T17:53:50.301Z,14.96
2022-10-31T17:56:17.489Z,14.91
2022-10-31T17:58:44.715Z,14.88
2022-10-31T18:01:16.303Z,14.82
2022-10-31T18:03:44.495Z,14.76
2022-10-31T18:06:14.481Z,14.66
2022-10-31T18:08:42.361Z,14.43
2022-10-31T18:11:21.990Z,14.39
2022-10-31T18:13:56.790Z,14.41
2022-10-31T18:16:25.391Z,14.34
2022-10-31T18:18:58.520Z,14.29
2022-10-31T18:21:25.998Z,14.26
2022-10-31T18:24:00.654Z,14.23
2022-10-31T18:26:29.227Z,14.17
2022-10-31T18:28:56.524Z,14.10
2022-10-31T18:31:24.492Z,14.09
2022-10-31T18:33:56.425Z,14.05
2022-10-31T18:36:24.639Z,14.00
2022-10-31T18:38:51.915Z,14.00
2022-10-31T18:41:19.614Z,13.95
2022-10-31T18:43:46.824Z,13.83
2022-10-31T18:46:17.997Z,13.80
2022-10-31T18:48:45.764Z,13.91
2022-10-31T18:51:14.670Z,13.95
2022-10-31T18:53:41.981Z,13.93
2022-10-31T18:56:11.140Z,13.88
2022-10-31T18:58:38.288Z,13.77
2022-10-31T19:01:13.224Z,13.75
2022-10-31T19:03:41.357Z,13.77
2022-10-31T19:06:10.126Z,13.76
2022-10-31T19:08:39.629Z,13.71
2022-10-31T19:11:13.939Z,13.68
2022-10-31T19:13:43.782Z,13.69
2022-10-31T19:16:16.458Z,13.70
2022-10-31T19:18:44.844Z,13.65
2022-10-31T19:21:17.300Z,13.64
2022-10-31T19:23:45.536Z,13.55
2022-10-31T19:26:13.886Z,13.45
2022-10-31T19:28:42.013Z,13.38
2022-10-31T19:31:10.419Z,13.35
2022-10-31T19:33:37.864Z,13.33
2022-10-31T19:36:15.492Z,13.28
2022-10-31T19:38:47.328Z,13.21
2022-10-31T19:41:26.048Z,13.15
2022-10-31T19:43:54.437Z,13.02
2022-10-31T19:46:40.355Z,13.03
2022-10-31T19:49:11.932Z,12.92
2022-10-31T19:51:39.182Z,12.89
2022-10-31T19:54:06.903Z,12.88
2022-10-31T19:56:34.073Z,12.89
2022-10-31T19:59:02.652Z,12.88
2022-10-31T20:01:30.394Z,12.94
2022-10-31T20:03:57.734Z,12.88
2022-10-31T20:06:28.280Z,12.81
2022-10-31T20:08:56.491Z,12.71
2022-10-31T20:11:26.798Z,12.69
2022-10-31T20:13:58.956Z,12.66
2022-10-31T20:16:28.120Z,12.57
2022-10-31T20:18:56.401Z,12.59
2022-10-31T20:21:28.526Z,12.60
2022-10-31T20:24:02.534Z,12.60
2022-10-31T20:26:32.100Z,12.58
2022-10-31T20:29:01.896Z,12.58
2022-10-31T20:31:36.396Z,12.55
2022-10-31T20:34:04.318Z,12.50
2022-10-31T20:36:31.659Z,12.53
2022-10-31T20:39:00.170Z,12.53
2022-10-31T20:41:27.391Z,12.47
2022-10-31T20:43:55.041Z,12.50
2022-10-31T20:46:26.384Z,12.50
2022-10-31T20:48:54.669Z,12.53
2022-10-31T20:51:28.696Z,12.46
2022-10-31T20:53:59.890Z,12.43
2022-10-31T20:56:28.622Z,12.46
2022-10-31T20:58:57.411Z,12.50
2022-10-31T21:01:29.628Z,12.51
2022-10-31T21:03:58.663Z,12.40
2022-10-31T21:06:26.789Z,12.39
2022-10-31T21:08:54.602Z,12.35
2022-10-31T21:11:25.509Z,12.37
2022-10-31T21:13:53.617Z,12.33
2022-10-31T21:16:25.893Z,12.34
2022-10-31T21:18:55.430Z,12.39
2022-10-31T21:21:36.056Z,12.40
2022-10-31T21:24:10.416Z,12.37
2022-10-31T21:26:42.689Z,12.30
2022-10-31T21:29:11.976Z,12.22
2022-10-31T21:31:40.441Z,12.15
2022-10-31T21:34:08.098Z,12.12
2022-10-31T21:36:36.109Z,12.07
2022-10-31T21:39:06.633Z,12.04
2022-10-31T21:41:34.101Z,12.02
2022-10-31T21:44:01.975Z,11.98
2022-10-31T21:46:33.997Z,12.03
2022-10-31T21:49:03.957Z,12.03
2022-10-31T21:51:35.359Z,12.02
2022-10-31T21:54:22.247Z,12.05
2022-10-31T21:56:49.528Z,11.98
2022-10-31T21:59:16.877Z,11.87
2022-10-31T22:01:44.263Z,11.84
2022-10-31T22:04:11.547Z,11.88
2022-10-31T22:06:38.898Z,11.81
2022-10-31T22:09:10.152Z,11.87
2022-10-31T22:11:37.511Z,11.91
2022-10-31T22:14:05.089Z,11.88
2022-10-31T22:16:36.608Z,11.95
2022-10-31T22:19:06.129Z,11.89
2022-10-31T22:21:47.297Z,11.84
2022-10-31T22:24:16.493Z,11.90
2022-10-31T22:26:44.113Z,11.87
2022-10-31T22:29:15.753Z,11.78
2022-10-31T22:31:53.485Z,11.68
2022-10-31T22:34:24.692Z,11.62
2022-10-31T22:36:54.257Z,11.63
2022-10-31T22:39:21.500Z,11.67
2022-10-31T22:41:48.630Z,11.72
2022-10-31T22:44:15.761Z,11.69
2022-10-31T22:46:42.935Z,11.69
2022-10-31T22:49:15.158Z,11.65
2022-10-31T22:51:43.777Z,11.58
2022-10-31T22:54:17.816Z,11.48
2022-10-31T22:56:46.172Z,11.51
2022-10-31T22:59:15.946Z,11.59
2022-10-31T23:01:47.194Z,11.62
2022-10-31T23:04:16.482Z,11.69
2022-10-31T23:06:44.292Z,11.66
2022-10-31T23:09:16.433Z,11.56
2022-10-31T23:11:44.503Z,11.57
2022-10-31T23:14:20.514Z,11.50
2022-10-31T23:16:56.063Z,11.55
2022-10-31T23:19:30.456Z,11.53
2022-10-31T23:22:03.968Z,11.40
2022-10-31T23:24:44.641Z,11.37
2022-10-31T23:27:17.450Z,11.52
2022-10-31T23:29:56.399Z,11.51
2022-10-31T23:32:35.054Z,11.49
2022-10-31T23:35:10.374Z,11.49
2022-10-31T23:37:39.139Z,11.47
2022-10-31T23:40:10.600Z,11.44
2022-10-31T23:42:38.471Z,11.53
2022-10-31T23:45:06.396Z,11.55
2022-10-31T23:47:33.782Z,11.53
2022-10-31T23:50:00.899Z,11.37
2022-10-31T23:52:28.221Z,11.31
2022-10-31T23:54:55.389Z,11.33
2022-10-31T23:57:22.522Z,11.32
2022-10-31T23:59:49.647Z,11.27
